sensor_id;sensor_type;location;lat;lon;timestamp;P1;durP1;ratioP1;P2;durP2;ratioP2
27740;SDS011;15134;48.768;9.184;2024-01-15T00:00:43;759.25;;;582.78;;
27740;SDS011;15134;48.768;9.184;2024-01-15T00:03:10;760.92;;;584.53;;
27740;SDS011;15134;48.768;9.184;2024-01-15T00:05:36;763.35;;;589.03;;
27740;SDS011;15134;48.768;9.184;2024-01-15T00:08:02;762.58;;;585.50;;
27740;SDS011;15134;48.768;9.184;2024-01-15T00:10:28;764.55;;;587.00;;
27740;SDS011;15134;48.768;9.184;2024-01-15T00:12:53;767.53;;;596.97;;
27740;SDS011;15134;48.768;9.184;2024-01-15T00:15:19;766.75;;;588.20;;
27740;SDS011;15134;48.768;9.184;2024-01-15T00:17:45;766.90;;;592.95;;
27740;SDS011;15134;48.768;9.184;2024-01-15T00:20:11;765.92;;;590.00;;
27740;SDS011;15134;48.768;9.184;2024-01-15T00:22:37;763.85;;;585.30;;
27740;SDS011;15134;48.768;9.184;2024-01-15T00:25:02;766.03;;;586.97;;
27740;SDS011;15134;48.768;9.184;2024-01-15T00:27:28;767.80;;;597.60;;
27740;SDS011;15134;48.768;9.184;2024-01-15T00:29:54;763.60;;;590.33;;
27740;SDS011;15134;48.768;9.184;2024-01-15T00:32:20;764.23;;;589.57;;
27740;SDS011;15134;48.768;9.184;2024-01-15T00:34:46;761.03;;;584.10;;
27740;SDS011;15134;48.768;9.184;2024-01-15T00:37:11;760.75;;;583.75;;
27740;SDS011;15134;48.768;9.184;2024-01-15T00:39:37;764.20;;;586.63;;
27740;SDS011;15134;48.768;9.184;2024-01-15T00:42:03;764.78;;;590.30;;
27740;SDS011;15134;48.768;9.184;2024-01-15T00:44:29;764.75;;;589.38;;
27740;SDS011;15134;48.768;9.184;2024-01-15T00:46:55;761.87;;;587.03;;
27740;SDS011;15134;48.768;9.184;2024-01-15T00:49:20;762.78;;;585.28;;
27740;SDS011;15134;48.768;9.184;2024-01-15T00:51:47;764.10;;;588.80;;
27740;SDS011;15134;48.768;9.184;2024-01-15T00:54:12;763.33;;;590.13;;
27740;SDS011;15134;48.768;9.184;2024-01-15T00:56:38;767.00;;;595.72;;
27740;SDS011;15134;48.768;9.184;2024-01-15T00:59:04;763.42;;;592.53;;
27740;SDS011;15134;48.768;9.184;2024-01-15T01:01:30;763.10;;;587.53;;
27740;SDS011;15134;48.768;9.184;2024-01-15T01:03:56;762.53;;;589.30;;
27740;SDS011;15134;48.768;9.184;2024-01-15T01:06:22;761.97;;;584.65;;
27740;SDS011;15134;48.768;9.184;2024-01-15T01:08:48;759.90;;;586.40;;
27740;SDS011;15134;48.768;9.184;2024-01-15T01:11:14;762.03;;;587.97;;
27740;SDS011;15134;48.768;9.184;2024-01-15T01:13:40;763.70;;;590.60;;
27740;SDS011;15134;48.768;9.184;2024-01-15T01:16:06;764.42;;;588.80;;
27740;SDS011;15134;48.768;9.184;2024-01-15T01:18:32;764.13;;;591.00;;
27740;SDS011;15134;48.768;9.184;2024-01-15T01:20:58;762.03;;;592.50;;
27740;SDS011;15134;48.768;9.184;2024-01-15T01:23:23;760.60;;;586.13;;
27740;SDS011;15134;48.768;9.184;2024-01-15T01:25:49;760.15;;;588.08;;
27740;SDS011;15134;48.768;9.184;2024-01-15T01:28:15;760.13;;;585.77;;
27740;SDS011;15134;48.768;9.184;2024-01-15T01:30:41;760.85;;;585.38;;
27740;SDS011;15134;48.768;9.184;2024-01-15T01:33:06;756.78;;;582.60;;
27740;SDS011;15134;48.768;9.184;2024-01-15T01:35:32;760.20;;;584.13;;
27740;SDS011;15134;48.768;9.184;2024-01-15T01:37:58;762.95;;;584.60;;
27740;SDS011;15134;48.768;9.184;2024-01-15T01:40:23;756.87;;;580.53;;
27740;SDS011;15134;48.768;9.184;2024-01-15T01:42:49;759.13;;;584.83;;
27740;SDS011;15134;48.768;9.184;2024-01-15T01:45:15;759.33;;;587.40;;
27740;SDS011;15134;48.768;9.184;2024-01-15T01:47:41;760.17;;;586.35;;
27740;SDS011;15134;48.768;9.184;2024-01-15T01:50:07;764.78;;;586.85;;
27740;SDS011;15134;48.768;9.184;2024-01-15T01:52:33;762.42;;;585.70;;
27740;SDS011;15134;48.768;9.184;2024-01-15T01:55:00;764.15;;;586.75;;
27740;SDS011;15134;48.768;9.184;2024-01-15T01:57:29;761.53;;;585.80;;
27740;SDS011;15134;48.768;9.184;2024-01-15T01:59:57;761.70;;;586.22;;
27740;SDS011;15134;48.768;9.184;2024-01-15T02:02:23;761.72;;;586.97;;
27740;SDS011;15134;48.768;9.184;2024-01-15T02:04:49;763.90;;;586.85;;
27740;SDS011;15134;48.768;9.184;2024-01-15T02:07:15;765.13;;;588.00;;
27740;SDS011;15134;48.768;9.184;2024-01-15T02:09:43;767.80;;;592.03;;
27740;SDS011;15134;48.768;9.184;2024-01-15T02:12:10;764.57;;;588.87;;
27740;SDS011;15134;48.768;9.184;2024-01-15T02:14:36;763.67;;;588.67;;
27740;SDS011;15134;48.768;9.184;2024-01-15T02:17:02;765.00;;;588.72;;
27740;SDS011;15134;48.768;9.184;2024-01-15T02:19:28;767.10;;;592.08;;
27740;SDS011;15134;48.768;9.184;2024-01-15T02:21:54;768.40;;;593.93;;
27740;SDS011;15134;48.768;9.184;2024-01-15T02:24:19;764.83;;;589.08;;
27740;SDS011;15134;48.768;9.184;2024-01-15T02:26:45;764.97;;;594.53;;
27740;SDS011;15134;48.768;9.184;2024-01-15T02:29:11;767.92;;;590.50;;
27740;SDS011;15134;48.768;9.184;2024-01-15T02:31:38;768.20;;;598.63;;
27740;SDS011;15134;48.768;9.184;2024-01-15T02:34:04;768.30;;;595.10;;
27740;SDS011;15134;48.768;9.184;2024-01-15T02:36:30;764.58;;;587.65;;
27740;SDS011;15134;48.768;9.184;2024-01-15T02:38:56;762.25;;;588.80;;
27740;SDS011;15134;48.768;9.184;2024-01-15T02:41:21;765.27;;;589.70;;
27740;SDS011;15134;48.768;9.184;2024-01-15T02:43:47;763.85;;;589.78;;
27740;SDS011;15134;48.768;9.184;2024-01-15T02:46:13;765.87;;;591.23;;
27740;SDS011;15134;48.768;9.184;2024-01-15T02:48:39;765.25;;;587.58;;
27740;SDS011;15134;48.768;9.184;2024-01-15T02:51:04;764.22;;;590.33;;
27740;SDS011;15134;48.768;9.184;2024-01-15T02:53:30;767.47;;;593.03;;
27740;SDS011;15134;48.768;9.184;2024-01-15T02:55:56;768.00;;;592.92;;
27740;SDS011;15134;48.768;9.184;2024-01-15T02:58:21;766.13;;;589.43;;
27740;SDS011;15134;48.768;9.184;2024-01-15T03:00:47;767.30;;;589.50;;
27740;SDS011;15134;48.768;9.184;2024-01-15T03:03:14;765.25;;;589.45;;
27740;SDS011;15134;48.768;9.184;2024-01-15T03:05:40;767.50;;;596.50;;
27740;SDS011;15134;48.768;9.184;2024-01-15T03:08:06;762.65;;;589.58;;
27740;SDS011;15134;48.768;9.184;2024-01-15T03:10:32;762.13;;;589.57;;
27740;SDS011;15134;48.768;9.184;2024-01-15T03:12:57;762.63;;;589.17;;
27740;SDS011;15134;48.768;9.184;2024-01-15T03:15:23;764.07;;;599.40;;
27740;SDS011;15134;48.768;9.184;2024-01-15T03:17:49;763.10;;;591.47;;
27740;SDS011;15134;48.768;9.184;2024-01-15T03:20:14;763.78;;;587.15;;
27740;SDS011;15134;48.768;9.184;2024-01-15T03:22:40;759.78;;;583.95;;
27740;SDS011;15134;48.768;9.184;2024-01-15T03:25:06;761.35;;;583.97;;
27740;SDS011;15134;48.768;9.184;2024-01-15T03:27:32;761.45;;;585.90;;
27740;SDS011;15134;48.768;9.184;2024-01-15T03:29:58;763.95;;;588.88;;
27740;SDS011;15134;48.768;9.184;2024-01-15T03:32:25;765.22;;;591.22;;
27740;SDS011;15134;48.768;9.184;2024-01-15T03:34:50;762.97;;;585.47;;
27740;SDS011;15134;48.768;9.184;2024-01-15T03:37:17;763.63;;;591.85;;
27740;SDS011;15134;48.768;9.184;2024-01-15T03:39:43;765.20;;;589.35;;
27740;SDS011;15134;48.768;9.184;2024-01-15T03:42:09;761.17;;;588.70;;
27740;SDS011;15134;48.768;9.184;2024-01-15T03:44:34;764.22;;;587.13;;
27740;SDS011;15134;48.768;9.184;2024-01-15T03:47:01;766.53;;;590.95;;
27740;SDS011;15134;48.768;9.184;2024-01-15T03:49:27;757.43;;;588.50;;
27740;SDS011;15134;48.768;9.184;2024-01-15T03:51:53;762.85;;;586.55;;
27740;SDS011;15134;48.768;9.184;2024-01-15T03:54:18;759.23;;;582.17;;
27740;SDS011;15134;48.768;9.184;2024-01-15T03:56:44;761.55;;;584.28;;
27740;SDS011;15134;48.768;9.184;2024-01-15T03:59:10;759.90;;;583.55;;
27740;SDS011;15134;48.768;9.184;2024-01-15T04:01:35;757.88;;;581.70;;
27740;SDS011;15134;48.768;9.184;2024-01-15T04:04:01;757.00;;;585.10;;
27740;SDS011;15134;48.768;9.184;2024-01-15T04:06:27;757.00;;;582.57;;
27740;SDS011;15134;48.768;9.184;2024-01-15T04:08:53;757.05;;;584.72;;
27740;SDS011;15134;48.768;9.184;2024-01-15T04:11:18;762.97;;;586.57;;
27740;SDS011;15134;48.768;9.184;2024-01-15T04:13:44;758.35;;;585.58;;
27740;SDS011;15134;48.768;9.184;2024-01-15T04:16:10;759.17;;;586.13;;
27740;SDS011;15134;48.768;9.184;2024-01-15T04:18:35;759.97;;;584.40;;
27740;SDS011;15134;48.768;9.184;2024-01-15T04:21:03;760.20;;;583.58;;
27740;SDS011;15134;48.768;9.184;2024-01-15T04:23:30;761.50;;;591.25;;
27740;SDS011;15134;48.768;9.184;2024-01-15T04:25:57;756.88;;;585.45;;
27740;SDS011;15134;48.768;9.184;2024-01-15T04:28:22;759.05;;;586.33;;
27740;SDS011;15134;48.768;9.184;2024-01-15T04:30:48;755.65;;;583.70;;
27740;SDS011;15134;48.768;9.184;2024-01-15T04:33:14;757.83;;;579.37;;
27740;SDS011;15134;48.768;9.184;2024-01-15T04:35:39;758.70;;;585.20;;
27740;SDS011;15134;48.768;9.184;2024-01-15T04:38:05;761.83;;;593.60;;
27740;SDS011;15134;48.768;9.184;2024-01-15T04:40:31;759.03;;;587.00;;
27740;SDS011;15134;48.768;9.184;2024-01-15T04:42:57;759.90;;;580.97;;
27740;SDS011;15134;48.768;9.184;2024-01-15T04:45:22;763.25;;;593.65;;
27740;SDS011;15134;48.768;9.184;2024-01-15T04:47:53;760.92;;;584.80;;
27740;SDS011;15134;48.768;9.184;2024-01-15T04:50:21;752.95;;;581.85;;
27740;SDS011;15134;48.768;9.184;2024-01-15T04:52:46;756.67;;;578.77;;
27740;SDS011;15134;48.768;9.184;2024-01-15T04:55:12;758.33;;;582.10;;
27740;SDS011;15134;48.768;9.184;2024-01-15T04:57:38;752.58;;;575.67;;
27740;SDS011;15134;48.768;9.184;2024-01-15T05:00:04;754.65;;;579.38;;
27740;SDS011;15134;48.768;9.184;2024-01-15T05:02:30;753.78;;;579.38;;
27740;SDS011;15134;48.768;9.184;2024-01-15T05:04:55;753.92;;;576.42;;
27740;SDS011;15134;48.768;9.184;2024-01-15T05:07:23;751.90;;;573.20;;
27740;SDS011;15134;48.768;9.184;2024-01-15T05:09:48;755.50;;;575.33;;
27740;SDS011;15134;48.768;9.184;2024-01-15T05:12:14;755.95;;;578.88;;
27740;SDS011;15134;48.768;9.184;2024-01-15T05:14:40;754.58;;;582.50;;
27740;SDS011;15134;48.768;9.184;2024-01-15T05:17:05;751.67;;;580.28;;
27740;SDS011;15134;48.768;9.184;2024-01-15T05:19:31;754.78;;;581.35;;
27740;SDS011;15134;48.768;9.184;2024-01-15T05:21:57;754.17;;;583.53;;
27740;SDS011;15134;48.768;9.184;2024-01-15T05:24:22;753.43;;;574.83;;
27740;SDS011;15134;48.768;9.184;2024-01-15T05:26:48;753.50;;;575.20;;
27740;SDS011;15134;48.768;9.184;2024-01-15T05:29:14;751.78;;;581.75;;
27740;SDS011;15134;48.768;9.184;2024-01-15T05:31:40;751.70;;;581.05;;
27740;SDS011;15134;48.768;9.184;2024-01-15T05:34:06;754.22;;;582.88;;
27740;SDS011;15134;48.768;9.184;2024-01-15T05:36:31;754.23;;;579.33;;
27740;SDS011;15134;48.768;9.184;2024-01-15T05:38:57;751.63;;;576.67;;
27740;SDS011;15134;48.768;9.184;2024-01-15T05:41:23;751.93;;;576.53;;
27740;SDS011;15134;48.768;9.184;2024-01-15T05:43:48;752.28;;;576.53;;
27740;SDS011;15134;48.768;9.184;2024-01-15T05:46:14;751.92;;;575.95;;
27740;SDS011;15134;48.768;9.184;2024-01-15T05:48:40;750.90;;;572.75;;
27740;SDS011;15134;48.768;9.184;2024-01-15T05:51:06;747.10;;;572.43;;
27740;SDS011;15134;48.768;9.184;2024-01-15T05:53:32;751.17;;;572.40;;
27740;SDS011;15134;48.768;9.184;2024-01-15T05:55:58;750.83;;;573.80;;
27740;SDS011;15134;48.768;9.184;2024-01-15T05:58:24;749.85;;;571.25;;
27740;SDS011;15134;48.768;9.184;2024-01-15T06:00:49;752.95;;;576.80;;
27740;SDS011;15134;48.768;9.184;2024-01-15T06:03:15;753.50;;;579.25;;
27740;SDS011;15134;48.768;9.184;2024-01-15T06:05:41;754.85;;;575.92;;
27740;SDS011;15134;48.768;9.184;2024-01-15T06:08:06;756.37;;;579.30;;
27740;SDS011;15134;48.768;9.184;2024-01-15T06:10:32;750.83;;;577.63;;
27740;SDS011;15134;48.768;9.184;2024-01-15T06:12:58;756.53;;;581.50;;
27740;SDS011;15134;48.768;9.184;2024-01-15T06:15:24;757.37;;;582.93;;
27740;SDS011;15134;48.768;9.184;2024-01-15T06:17:50;757.45;;;581.30;;
27740;SDS011;15134;48.768;9.184;2024-01-15T06:20:16;759.03;;;584.60;;
27740;SDS011;15134;48.768;9.184;2024-01-15T06:22:42;759.40;;;584.58;;
27740;SDS011;15134;48.768;9.184;2024-01-15T06:25:08;755.72;;;580.17;;
27740;SDS011;15134;48.768;9.184;2024-01-15T06:27:33;753.33;;;579.78;;
27740;SDS011;15134;48.768;9.184;2024-01-15T06:29:59;754.13;;;575.93;;
27740;SDS011;15134;48.768;9.184;2024-01-15T06:32:25;756.78;;;581.50;;
27740;SDS011;15134;48.768;9.184;2024-01-15T06:34:51;757.37;;;583.00;;
27740;SDS011;15134;48.768;9.184;2024-01-15T06:37:16;759.83;;;583.95;;
27740;SDS011;15134;48.768;9.184;2024-01-15T06:39:45;758.03;;;579.78;;
27740;SDS011;15134;48.768;9.184;2024-01-15T06:42:10;756.90;;;584.28;;
27740;SDS011;15134;48.768;9.184;2024-01-15T06:44:36;758.83;;;580.50;;
27740;SDS011;15134;48.768;9.184;2024-01-15T06:47:02;757.08;;;583.60;;
27740;SDS011;15134;48.768;9.184;2024-01-15T06:49:29;756.35;;;576.38;;
27740;SDS011;15134;48.768;9.184;2024-01-15T06:51:55;756.88;;;579.00;;
27740;SDS011;15134;48.768;9.184;2024-01-15T06:54:21;757.83;;;585.00;;
27740;SDS011;15134;48.768;9.184;2024-01-15T06:56:47;758.33;;;584.85;;
27740;SDS011;15134;48.768;9.184;2024-01-15T06:59:12;758.17;;;584.77;;
27740;SDS011;15134;48.768;9.184;2024-01-15T07:01:38;757.33;;;579.05;;
27740;SDS011;15134;48.768;9.184;2024-01-15T07:04:04;757.53;;;581.47;;
27740;SDS011;15134;48.768;9.184;2024-01-15T07:06:29;754.63;;;580.70;;
27740;SDS011;15134;48.768;9.184;2024-01-15T07:08:56;753.83;;;577.40;;
27740;SDS011;15134;48.768;9.184;2024-01-15T07:11:21;757.85;;;584.92;;
27740;SDS011;15134;48.768;9.184;2024-01-15T07:13:47;758.85;;;584.42;;
27740;SDS011;15134;48.768;9.184;2024-01-15T07:16:13;754.35;;;587.13;;
27740;SDS011;15134;48.768;9.184;2024-01-15T07:18:39;755.28;;;579.40;;
27740;SDS011;15134;48.768;9.184;2024-01-15T07:21:04;760.45;;;586.75;;
27740;SDS011;15134;48.768;9.184;2024-01-15T07:23:31;754.07;;;582.77;;
27740;SDS011;15134;48.768;9.184;2024-01-15T07:25:57;755.50;;;580.28;;
27740;SDS011;15134;48.768;9.184;2024-01-15T07:28:22;756.00;;;582.33;;
27740;SDS011;15134;48.768;9.184;2024-01-15T07:30:48;755.30;;;576.80;;
27740;SDS011;15134;48.768;9.184;2024-01-15T07:33:14;752.15;;;584.55;;
27740;SDS011;15134;48.768;9.184;2024-01-15T07:35:40;754.17;;;579.90;;
27740;SDS011;15134;48.768;9.184;2024-01-15T07:38:05;755.73;;;580.33;;
27740;SDS011;15134;48.768;9.184;2024-01-15T07:40:31;754.67;;;584.08;;
27740;SDS011;15134;48.768;9.184;2024-01-15T07:42:57;755.63;;;577.37;;
27740;SDS011;15134;48.768;9.184;2024-01-15T07:45:22;754.88;;;578.70;;
27740;SDS011;15134;48.768;9.184;2024-01-15T07:47:49;755.95;;;580.55;;
27740;SDS011;15134;48.768;9.184;2024-01-15T07:50:14;754.37;;;576.33;;
27740;SDS011;15134;48.768;9.184;2024-01-15T07:52:40;757.58;;;583.55;;
27740;SDS011;15134;48.768;9.184;2024-01-15T07:55:07;758.78;;;586.25;;
27740;SDS011;15134;48.768;9.184;2024-01-15T07:57:33;754.53;;;581.25;;
27740;SDS011;15134;48.768;9.184;2024-01-15T07:59:59;755.92;;;580.97;;
27740;SDS011;15134;48.768;9.184;2024-01-15T08:02:24;756.83;;;581.27;;
27740;SDS011;15134;48.768;9.184;2024-01-15T08:04:51;759.50;;;588.17;;
27740;SDS011;15134;48.768;9.184;2024-01-15T08:07:16;760.70;;;590.13;;
27740;SDS011;15134;48.768;9.184;2024-01-15T08:09:43;759.28;;;588.65;;
27740;SDS011;15134;48.768;9.184;2024-01-15T08:12:08;761.03;;;588.15;;
27740;SDS011;15134;48.768;9.184;2024-01-15T08:14:35;756.50;;;588.33;;
27740;SDS011;15134;48.768;9.184;2024-01-15T08:17:00;764.57;;;593.10;;
27740;SDS011;15134;48.768;9.184;2024-01-15T08:19:26;760.35;;;582.65;;
27740;SDS011;15134;48.768;9.184;2024-01-15T08:21:52;756.22;;;582.85;;
27740;SDS011;15134;48.768;9.184;2024-01-15T08:24:18;757.27;;;588.00;;
27740;SDS011;15134;48.768;9.184;2024-01-15T08:26:44;760.75;;;587.92;;
27740;SDS011;15134;48.768;9.184;2024-01-15T08:29:10;756.20;;;581.00;;
27740;SDS011;15134;48.768;9.184;2024-01-15T08:31:36;757.93;;;582.47;;
27740;SDS011;15134;48.768;9.184;2024-01-15T08:34:01;762.58;;;585.95;;
27740;SDS011;15134;48.768;9.184;2024-01-15T08:36:27;760.40;;;585.87;;
27740;SDS011;15134;48.768;9.184;2024-01-15T08:38:57;762.20;;;589.70;;
27740;SDS011;15134;48.768;9.184;2024-01-15T08:41:22;763.17;;;587.07;;
27740;SDS011;15134;48.768;9.184;2024-01-15T08:43:49;764.50;;;591.22;;
27740;SDS011;15134;48.768;9.184;2024-01-15T08:46:15;768.53;;;597.87;;
27740;SDS011;15134;48.768;9.184;2024-01-15T08:48:40;766.80;;;590.70;;
27740;SDS011;15134;48.768;9.184;2024-01-15T08:51:06;766.37;;;590.37;;
27740;SDS011;15134;48.768;9.184;2024-01-15T08:53:33;768.58;;;593.83;;
27740;SDS011;15134;48.768;9.184;2024-01-15T08:55:59;769.17;;;597.37;;
27740;SDS011;15134;48.768;9.184;2024-01-15T08:58:24;767.38;;;597.08;;
27740;SDS011;15134;48.768;9.184;2024-01-15T09:00:50;769.23;;;597.37;;
27740;SDS011;15134;48.768;9.184;2024-01-15T09:03:16;769.90;;;593.15;;
27740;SDS011;15134;48.768;9.184;2024-01-15T09:05:44;765.70;;;589.20;;
27740;SDS011;15134;48.768;9.184;2024-01-15T09:08:10;765.17;;;590.00;;
27740;SDS011;15134;48.768;9.184;2024-01-15T09:10:35;764.75;;;591.65;;
27740;SDS011;15134;48.768;9.184;2024-01-15T09:13:01;763.63;;;586.08;;
27740;SDS011;15134;48.768;9.184;2024-01-15T09:15:29;765.90;;;587.88;;
27740;SDS011;15134;48.768;9.184;2024-01-15T09:17:55;765.63;;;589.10;;
27740;SDS011;15134;48.768;9.184;2024-01-15T09:20:22;765.87;;;588.50;;
27740;SDS011;15134;48.768;9.184;2024-01-15T09:22:48;763.25;;;588.60;;
27740;SDS011;15134;48.768;9.184;2024-01-15T09:25:14;766.83;;;586.40;;
27740;SDS011;15134;48.768;9.184;2024-01-15T09:27:39;767.30;;;593.22;;
27740;SDS011;15134;48.768;9.184;2024-01-15T09:30:05;765.90;;;586.50;;
27740;SDS011;15134;48.768;9.184;2024-01-15T09:32:31;763.60;;;588.33;;
27740;SDS011;15134;48.768;9.184;2024-01-15T09:34:58;766.37;;;595.67;;
27740;SDS011;15134;48.768;9.184;2024-01-15T09:37:24;769.67;;;594.90;;
27740;SDS011;15134;48.768;9.184;2024-01-15T09:39:50;768.33;;;595.30;;
27740;SDS011;15134;48.768;9.184;2024-01-15T09:42:16;763.55;;;591.47;;
27740;SDS011;15134;48.768;9.184;2024-01-15T09:44:41;762.37;;;589.70;;
27740;SDS011;15134;48.768;9.184;2024-01-15T09:47:07;761.30;;;587.78;;
27740;SDS011;15134;48.768;9.184;2024-01-15T09:49:34;766.72;;;590.25;;
27740;SDS011;15134;48.768;9.184;2024-01-15T09:52:00;764.55;;;589.40;;
27740;SDS011;15134;48.768;9.184;2024-01-15T09:54:27;771.00;;;593.50;;
27740;SDS011;15134;48.768;9.184;2024-01-15T09:56:53;770.17;;;591.07;;
27740;SDS011;15134;48.768;9.184;2024-01-15T09:59:20;770.83;;;595.20;;
27740;SDS011;15134;48.768;9.184;2024-01-15T10:01:49;776.13;;;602.15;;
27740;SDS011;15134;48.768;9.184;2024-01-15T10:04:15;769.85;;;595.83;;
27740;SDS011;15134;48.768;9.184;2024-01-15T10:06:44;762.85;;;588.50;;
27740;SDS011;15134;48.768;9.184;2024-01-15T10:09:12;764.55;;;586.42;;
27740;SDS011;15134;48.768;9.184;2024-01-15T10:11:41;766.05;;;591.97;;
27740;SDS011;15134;48.768;9.184;2024-01-15T10:14:08;766.90;;;595.17;;
27740;SDS011;15134;48.768;9.184;2024-01-15T10:16:34;761.72;;;591.00;;
27740;SDS011;15134;48.768;9.184;2024-01-15T10:19:00;762.47;;;586.00;;
27740;SDS011;15134;48.768;9.184;2024-01-15T10:21:26;762.28;;;591.47;;
27740;SDS011;15134;48.768;9.184;2024-01-15T10:23:51;758.95;;;584.05;;
27740;SDS011;15134;48.768;9.184;2024-01-15T10:26:17;763.22;;;589.72;;
27740;SDS011;15134;48.768;9.184;2024-01-15T10:28:44;763.55;;;587.80;;
27740;SDS011;15134;48.768;9.184;2024-01-15T10:31:09;763.05;;;582.78;;
27740;SDS011;15134;48.768;9.184;2024-01-15T10:33:35;763.63;;;582.92;;
27740;SDS011;15134;48.768;9.184;2024-01-15T10:36:01;767.00;;;593.60;;
27740;SDS011;15134;48.768;9.184;2024-01-15T10:38:27;763.88;;;592.28;;
27740;SDS011;15134;48.768;9.184;2024-01-15T10:40:56;762.58;;;586.20;;
27740;SDS011;15134;48.768;9.184;2024-01-15T10:43:22;767.72;;;595.03;;
27740;SDS011;15134;48.768;9.184;2024-01-15T10:45:48;766.10;;;596.40;;
27740;SDS011;15134;48.768;9.184;2024-01-15T10:48:18;767.33;;;596.40;;
27740;SDS011;15134;48.768;9.184;2024-01-15T10:50:48;769.47;;;600.55;;
27740;SDS011;15134;48.768;9.184;2024-01-15T10:53:16;767.95;;;592.35;;
27740;SDS011;15134;48.768;9.184;2024-01-15T10:55:43;761.72;;;589.22;;
27740;SDS011;15134;48.768;9.184;2024-01-15T10:58:11;765.38;;;591.00;;
27740;SDS011;15134;48.768;9.184;2024-01-15T11:00:38;764.55;;;591.40;;
27740;SDS011;15134;48.768;9.184;2024-01-15T11:03:05;766.28;;;594.95;;
27740;SDS011;15134;48.768;9.184;2024-01-15T11:05:37;770.13;;;602.55;;
27740;SDS011;15134;48.768;9.184;2024-01-15T11:08:07;763.30;;;586.50;;
27740;SDS011;15134;48.768;9.184;2024-01-15T11:10:46;766.95;;;590.60;;
27740;SDS011;15134;48.768;9.184;2024-01-15T11:15:59;762.67;;;596.08;;
27740;SDS011;15134;48.768;9.184;2024-01-15T11:18:27;769.17;;;596.70;;
27740;SDS011;15134;48.768;9.184;2024-01-15T11:23:44;765.28;;;589.75;;
27740;SDS011;15134;48.768;9.184;2024-01-15T11:28:57;766.67;;;587.97;;
27740;SDS011;15134;48.768;9.184;2024-01-15T11:34:06;765.78;;;596.15;;
27740;SDS011;15134;48.768;9.184;2024-01-15T11:41:57;763.17;;;590.28;;
27740;SDS011;15134;48.768;9.184;2024-01-15T11:44:23;761.20;;;587.63;;
27740;SDS011;15134;48.768;9.184;2024-01-15T11:52:19;761.40;;;590.97;;
27740;SDS011;15134;48.768;9.184;2024-01-15T12:00:05;762.50;;;586.72;;
27740;SDS011;15134;48.768;9.184;2024-01-15T12:02:41;762.67;;;587.72;;
27740;SDS011;15134;48.768;9.184;2024-01-15T12:05:09;764.35;;;590.75;;
27740;SDS011;15134;48.768;9.184;2024-01-15T12:07:38;765.70;;;590.00;;
27740;SDS011;15134;48.768;9.184;2024-01-15T12:10:11;766.33;;;593.03;;
27740;SDS011;15134;48.768;9.184;2024-01-15T12:15:38;760.23;;;585.87;;
27740;SDS011;15134;48.768;9.184;2024-01-15T12:18:07;760.83;;;583.50;;
27740;SDS011;15134;48.768;9.184;2024-01-15T12:20:34;762.42;;;586.95;;
27740;SDS011;15134;48.768;9.184;2024-01-15T12:23:01;758.17;;;581.88;;
27740;SDS011;15134;48.768;9.184;2024-01-15T12:25:28;761.08;;;588.15;;
27740;SDS011;15134;48.768;9.184;2024-01-15T12:27:55;759.90;;;584.83;;
27740;SDS011;15134;48.768;9.184;2024-01-15T12:30:22;757.60;;;580.05;;
27740;SDS011;15134;48.768;9.184;2024-01-15T12:32:47;762.22;;;589.65;;
27740;SDS011;15134;48.768;9.184;2024-01-15T12:35:13;762.83;;;590.07;;
27740;SDS011;15134;48.768;9.184;2024-01-15T12:37:40;761.10;;;585.22;;
27740;SDS011;15134;48.768;9.184;2024-01-15T12:40:07;761.17;;;586.97;;
27740;SDS011;15134;48.768;9.184;2024-01-15T12:42:44;761.97;;;591.27;;
27740;SDS011;15134;48.768;9.184;2024-01-15T12:45:11;761.13;;;585.63;;
27740;SDS011;15134;48.768;9.184;2024-01-15T12:47:41;763.22;;;589.03;;
27740;SDS011;15134;48.768;9.184;2024-01-15T12:50:10;757.67;;;581.85;;
27740;SDS011;15134;48.768;9.184;2024-01-15T12:52:37;761.30;;;586.65;;
27740;SDS011;15134;48.768;9.184;2024-01-15T12:55:06;756.15;;;584.13;;
27740;SDS011;15134;48.768;9.184;2024-01-15T12:57:34;761.53;;;586.83;;
27740;SDS011;15134;48.768;9.184;2024-01-15T13:00:00;761.65;;;586.85;;
27740;SDS011;15134;48.768;9.184;2024-01-15T13:02:27;763.60;;;590.88;;
27740;SDS011;15134;48.768;9.184;2024-01-15T13:04:52;761.85;;;589.13;;
27740;SDS011;15134;48.768;9.184;2024-01-15T13:07:19;766.17;;;592.95;;
27740;SDS011;15134;48.768;9.184;2024-01-15T13:09:45;763.97;;;592.67;;
27740;SDS011;15134;48.768;9.184;2024-01-15T13:12:10;763.85;;;586.83;;
27740;SDS011;15134;48.768;9.184;2024-01-15T13:14:36;763.03;;;587.97;;
27740;SDS011;15134;48.768;9.184;2024-01-15T13:17:02;767.17;;;597.60;;
27740;SDS011;15134;48.768;9.184;2024-01-15T13:19:28;765.53;;;591.63;;
27740;SDS011;15134;48.768;9.184;2024-01-15T13:21:54;767.22;;;595.40;;
27740;SDS011;15134;48.768;9.184;2024-01-15T13:24:23;770.75;;;599.85;;
27740;SDS011;15134;48.768;9.184;2024-01-15T13:26:49;769.13;;;598.95;;
27740;SDS011;15134;48.768;9.184;2024-01-15T13:29:15;768.88;;;594.58;;
27740;SDS011;15134;48.768;9.184;2024-01-15T13:31:40;766.00;;;594.38;;
27740;SDS011;15134;48.768;9.184;2024-01-15T13:34:06;768.38;;;596.72;;
27740;SDS011;15134;48.768;9.184;2024-01-15T13:36:32;767.73;;;599.53;;
27740;SDS011;15134;48.768;9.184;2024-01-15T13:38:58;765.80;;;592.97;;
27740;SDS011;15134;48.768;9.184;2024-01-15T13:41:24;767.67;;;595.20;;
27740;SDS011;15134;48.768;9.184;2024-01-15T13:43:52;768.97;;;598.67;;
27740;SDS011;15134;48.768;9.184;2024-01-15T13:46:28;766.47;;;589.08;;
27740;SDS011;15134;48.768;9.184;2024-01-15T13:48:57;764.05;;;589.50;;
27740;SDS011;15134;48.768;9.184;2024-01-15T13:51:23;766.93;;;596.40;;
27740;SDS011;15134;48.768;9.184;2024-01-15T13:53:49;766.80;;;593.22;;
27740;SDS011;15134;48.768;9.184;2024-01-15T13:56:15;769.88;;;599.08;;
27740;SDS011;15134;48.768;9.184;2024-01-15T13:58:41;768.35;;;596.83;;
27740;SDS011;15134;48.768;9.184;2024-01-15T14:01:08;772.70;;;597.22;;
27740;SDS011;15134;48.768;9.184;2024-01-15T14:03:34;765.67;;;591.75;;
27740;SDS011;15134;48.768;9.184;2024-01-15T14:06:00;767.70;;;596.65;;
27740;SDS011;15134;48.768;9.184;2024-01-15T14:08:28;767.17;;;596.20;;
27740;SDS011;15134;48.768;9.184;2024-01-15T14:10:54;768.37;;;596.73;;
27740;SDS011;15134;48.768;9.184;2024-01-15T14:13:22;767.85;;;589.97;;
27740;SDS011;15134;48.768;9.184;2024-01-15T14:15:47;768.63;;;594.75;;
27740;SDS011;15134;48.768;9.184;2024-01-15T14:18:15;772.13;;;600.80;;
27740;SDS011;15134;48.768;9.184;2024-01-15T14:20:41;773.40;;;604.42;;